sensor_id;sensor_type;location;lat;lon;timestamp;P1;durP1;ratioP1;P2;durP2;ratioP2
17967;SDS011;9109;48.050;11.696;2022-11-20T04:48:10;3.43;;;2.10;;
17967;SDS011;9109;48.050;11.696;2022-11-20T04:51:12;4.33;;;2.57;;
17967;SDS011;9109;48.050;11.696;2022-11-20T04:54:13;4.77;;;2.43;;
17967;SDS011;9109;48.050;11.696;2022-11-20T04:57:16;3.27;;;2.10;;
17967;SDS011;9109;48.050;11.696;2022-11-20T05:00:18;7.13;;;2.40;;
17967;SDS011;9109;48.050;11.696;2022-11-20T05:03:21;5.33;;;1.93;;
17967;SDS011;9109;48.050;11.696;2022-11-20T05:06:23;4.30;;;2.30;;
17967;SDS011;9109;48.050;11.696;2022-11-20T05:09:25;6.87;;;2.07;;
17967;SDS011;9109;48.050;11.696;2022-11-20T05:12:27;4.10;;;2.27;;
17967;SDS011;9109;48.050;11.696;2022-11-20T05:15:32;10.37;;;2.43;;
17967;SDS011;9109;48.050;11.696;2022-11-20T05:18:35;5.10;;;2.30;;
17967;SDS011;9109;48.050;11.696;2022-11-20T05:21:37;3.77;;;2.67;;
17967;SDS011;9109;48.050;11.696;2022-11-20T05:24:39;3.47;;;2.10;;
17967;SDS011;9109;48.050;11.696;2022-11-20T05:27:41;4.07;;;2.50;;
17967;SDS011;9109;48.050;11.696;2022-11-20T05:30:43;4.07;;;2.77;;
17967;SDS011;9109;48.050;11.696;2022-11-20T05:33:47;4.30;;;2.30;;
17967;SDS011;9109;48.050;11.696;2022-11-20T05:36:54;5.60;;;2.30;;
17967;SDS011;9109;48.050;11.696;2022-11-20T05:40:01;3.17;;;2.00;;
17967;SDS011;9109;48.050;11.696;2022-11-20T05:43:11;3.90;;;2.13;;
17967;SDS011;9109;48.050;11.696;2022-11-20T05:46:16;5.50;;;2.30;;
17967;SDS011;9109;48.050;11.696;2022-11-20T05:49:24;4.67;;;2.20;;
17967;SDS011;9109;48.050;11.696;2022-11-20T05:52:27;6.17;;;2.47;;
17967;SDS011;9109;48.050;11.696;2022-11-20T05:55:31;3.70;;;2.47;;
17967;SDS011;9109;48.050;11.696;2022-11-20T05:58:41;3.50;;;2.43;;
17967;SDS011;9109;48.050;11.696;2022-11-20T06:01:43;8.10;;;2.60;;
17967;SDS011;9109;48.050;11.696;2022-11-20T06:04:50;6.10;;;2.73;;
17967;SDS011;9109;48.050;11.696;2022-11-20T06:07:52;4.50;;;2.70;;
17967;SDS011;9109;48.050;11.696;2022-11-20T06:10:56;4.13;;;2.37;;
17967;SDS011;9109;48.050;11.696;2022-11-20T06:14:08;4.40;;;2.67;;
17967;SDS011;9109;48.050;11.696;2022-11-20T06:17:10;8.90;;;3.03;;
17967;SDS011;9109;48.050;11.696;2022-11-20T06:20:14;5.23;;;2.90;;
17967;SDS011;9109;48.050;11.696;2022-11-20T06:23:23;6.90;;;3.03;;
17967;SDS011;9109;48.050;11.696;2022-11-20T06:26:32;4.37;;;2.83;;
17967;SDS011;9109;48.050;11.696;2022-11-20T06:29:37;5.80;;;2.87;;
17967;SDS011;9109;48.050;11.696;2022-11-20T06:32:42;4.17;;;2.70;;
17967;SDS011;9109;48.050;11.696;2022-11-20T06:35:48;4.70;;;2.97;;
17967;SDS011;9109;48.050;11.696;2022-11-20T06:38:53;4.53;;;3.07;;
17967;SDS011;9109;48.050;11.696;2022-11-20T06:41:59;5.70;;;2.90;;
17967;SDS011;9109;48.050;11.696;2022-11-20T06:45:09;4.50;;;2.90;;
17967;SDS011;9109;48.050;11.696;2022-11-20T06:48:15;5.80;;;2.87;;
17967;SDS011;9109;48.050;11.696;2022-11-20T06:51:24;4.20;;;2.97;;
17967;SDS011;9109;48.050;11.696;2022-11-20T06:54:42;5.90;;;2.70;;
17967;SDS011;9109;48.050;11.696;2022-11-20T07:01:32;3.40;;;2.47;;
17967;SDS011;9109;48.050;11.696;2022-11-20T07:04:38;6.23;;;2.63;;
17967;SDS011;9109;48.050;11.696;2022-11-20T07:07:50;4.03;;;2.10;;
17967;SDS011;9109;48.050;11.696;2022-11-20T07:11:03;4.67;;;2.67;;
17967;SDS011;9109;48.050;11.696;2022-11-20T07:14:06;4.83;;;2.37;;
17967;SDS011;9109;48.050;11.696;2022-11-20T07:17:25;3.97;;;2.57;;
17967;SDS011;9109;48.050;11.696;2022-11-20T07:20:28;3.43;;;2.37;;
17967;SDS011;9109;48.050;11.696;2022-11-20T07:23:47;6.00;;;3.03;;
17967;SDS011;9109;48.050;11.696;2022-11-20T07:26:59;6.07;;;3.13;;
17967;SDS011;9109;48.050;11.696;2022-11-20T07:30:14;7.70;;;3.03;;
17967;SDS011;9109;48.050;11.696;2022-11-20T07:33:33;5.03;;;2.60;;
17967;SDS011;9109;48.050;11.696;2022-11-20T07:36:39;6.97;;;3.10;;
17967;SDS011;9109;48.050;11.696;2022-11-20T07:39:48;5.13;;;2.63;;
17967;SDS011;9109;48.050;11.696;2022-11-20T07:42:55;3.20;;;2.50;;
17967;SDS011;9109;48.050;11.696;2022-11-20T07:45:58;6.27;;;2.90;;
17967;SDS011;9109;48.050;11.696;2022-11-20T07:49:09;6.67;;;2.60;;
17967;SDS011;9109;48.050;11.696;2022-11-20T07:52:13;5.83;;;2.70;;
17967;SDS011;9109;48.050;11.696;2022-11-20T07:55:19;3.43;;;2.30;;
17967;SDS011;9109;48.050;11.696;2022-11-20T07:58:32;6.23;;;2.70;;
17967;SDS011;9109;48.050;11.696;2022-11-20T08:01:42;5.73;;;2.30;;
17967;SDS011;9109;48.050;11.696;2022-11-20T08:04:49;3.90;;;2.20;;
17967;SDS011;9109;48.050;11.696;2022-11-20T08:08:01;3.97;;;2.33;;
17967;SDS011;9109;48.050;11.696;2022-11-20T08:11:11;3.37;;;2.03;;
17967;SDS011;9109;48.050;11.696;2022-11-20T08:14:29;3.37;;;1.90;;
17967;SDS011;9109;48.050;11.696;2022-11-20T08:17:34;5.10;;;2.10;;
17967;SDS011;9109;48.050;11.696;2022-11-20T08:20:46;7.60;;;2.30;;
17967;SDS011;9109;48.050;11.696;2022-11-20T08:24:04;3.37;;;2.30;;
17967;SDS011;9109;48.050;11.696;2022-11-20T08:27:10;6.97;;;2.03;;
17967;SDS011;9109;48.050;11.696;2022-11-20T08:30:21;3.10;;;2.10;;
17967;SDS011;9109;48.050;11.696;2022-11-20T08:33:26;5.47;;;2.00;;
17967;SDS011;9109;48.050;11.696;2022-11-20T08:36:28;2.73;;;2.00;;
17967;SDS011;9109;48.050;11.696;2022-11-20T08:39:36;3.47;;;1.87;;
17967;SDS011;9109;48.050;11.696;2022-11-20T08:42:46;2.80;;;1.80;;
17967;SDS011;9109;48.050;11.696;2022-11-20T08:45:51;3.70;;;2.07;;
17967;SDS011;9109;48.050;11.696;2022-11-20T08:48:58;2.87;;;1.90;;
17967;SDS011;9109;48.050;11.696;2022-11-20T08:52:07;3.63;;;1.90;;
17967;SDS011;9109;48.050;11.696;2022-11-20T08:55:09;2.70;;;1.90;;
17967;SDS011;9109;48.050;11.696;2022-11-20T08:58:14;3.20;;;2.10;;
17967;SDS011;9109;48.050;11.696;2022-11-20T09:01:20;5.23;;;2.00;;
17967;SDS011;9109;48.050;11.696;2022-11-20T09:04:25;2.10;;;1.80;;
17967;SDS011;9109;48.050;11.696;2022-11-20T09:07:29;5.03;;;1.90;;
17967;SDS011;9109;48.050;11.696;2022-11-20T09:10:51;5.97;;;2.30;;
17967;SDS011;9109;48.050;11.696;2022-11-20T09:14:09;3.00;;;1.97;;
17967;SDS011;9109;48.050;11.696;2022-11-20T09:17:18;4.30;;;2.10;;
17967;SDS011;9109;48.050;11.696;2022-11-20T09:20:34;4.13;;;2.20;;
17967;SDS011;9109;48.050;11.696;2022-11-20T09:23:37;3.63;;;1.73;;
17967;SDS011;9109;48.050;11.696;2022-11-20T09:26:49;3.50;;;1.90;;
17967;SDS011;9109;48.050;11.696;2022-11-20T09:30:03;3.03;;;1.80;;
17967;SDS011;9109;48.050;11.696;2022-11-20T09:33:05;2.27;;;1.57;;
17967;SDS011;9109;48.050;11.696;2022-11-20T09:36:15;4.20;;;1.70;;
17967;SDS011;9109;48.050;11.696;2022-11-20T09:39:35;3.50;;;1.60;;
17967;SDS011;9109;48.050;11.696;2022-11-20T09:42:39;2.43;;;1.67;;
17967;SDS011;9109;48.050;11.696;2022-11-20T09:46:01;2.97;;;1.50;;
17967;SDS011;9109;48.050;11.696;2022-11-20T09:49:19;3.47;;;1.50;;
17967;SDS011;9109;48.050;11.696;2022-11-20T09:52:32;2.83;;;1.70;;
17967;SDS011;9109;48.050;11.696;2022-11-20T09:55:41;3.17;;;1.87;;
17967;SDS011;9109;48.050;11.696;2022-11-20T09:58:52;4.43;;;1.30;;
17967;SDS011;9109;48.050;11.696;2022-11-20T10:02:11;3.67;;;1.20;;
17967;SDS011;9109;48.050;11.696;2022-11-20T10:05:28;2.13;;;1.27;;
17967;SDS011;9109;48.050;11.696;2022-11-20T10:08:39;6.87;;;1.60;;
17967;SDS011;9109;48.050;11.696;2022-11-20T10:11:51;1.67;;;1.10;;
17967;SDS011;9109;48.050;11.696;2022-11-20T10:15:09;2.83;;;1.40;;
17967;SDS011;9109;48.050;11.696;2022-11-20T10:18:23;6.10;;;2.87;;
17967;SDS011;9109;48.050;11.696;2022-11-20T10:21:52;2.03;;;1.10;;
17967;SDS011;9109;48.050;11.696;2022-11-20T10:25:02;3.87;;;1.20;;
17967;SDS011;9109;48.050;11.696;2022-11-20T10:28:24;3.47;;;1.47;;
17967;SDS011;9109;48.050;11.696;2022-11-20T10:31:39;3.93;;;1.20;;
17967;SDS011;9109;48.050;11.696;2022-11-20T10:34:49;2.70;;;1.60;;
17967;SDS011;9109;48.050;11.696;2022-11-20T10:37:56;2.03;;;1.50;;
17967;SDS011;9109;48.050;11.696;2022-11-20T10:41:01;7.17;;;1.10;;
17967;SDS011;9109;48.050;11.696;2022-11-20T10:44:19;1.90;;;1.20;;
17967;SDS011;9109;48.050;11.696;2022-11-20T10:47:36;3.17;;;1.40;;
17967;SDS011;9109;48.050;11.696;2022-11-20T10:50:44;3.70;;;1.30;;
17967;SDS011;9109;48.050;11.696;2022-11-20T10:53:56;2.73;;;1.17;;
17967;SDS011;9109;48.050;11.696;2022-11-20T10:57:23;2.30;;;0.97;;
17967;SDS011;9109;48.050;11.696;2022-11-20T11:00:35;1.10;;;1.00;;
17967;SDS011;9109;48.050;11.696;2022-11-20T11:03:45;4.90;;;0.93;;
17967;SDS011;9109;48.050;11.696;2022-11-20T11:07:04;1.33;;;0.90;;
17967;SDS011;9109;48.050;11.696;2022-11-20T11:10:15;2.37;;;1.10;;
17967;SDS011;9109;48.050;11.696;2022-11-20T11:13:19;1.07;;;0.83;;
17967;SDS011;9109;48.050;11.696;2022-11-20T11:16:25;1.50;;;0.90;;
17967;SDS011;9109;48.050;11.696;2022-11-20T11:19:34;1.40;;;0.80;;
17967;SDS011;9109;48.050;11.696;2022-11-20T11:22:42;3.00;;;0.90;;
17967;SDS011;9109;48.050;11.696;2022-11-20T11:25:55;3.63;;;1.00;;
17967;SDS011;9109;48.050;11.696;2022-11-20T11:28:59;0.80;;;0.67;;
17967;SDS011;9109;48.050;11.696;2022-11-20T11:32:04;1.80;;;1.03;;
17967;SDS011;9109;48.050;11.696;2022-11-20T11:35:19;1.73;;;0.90;;
17967;SDS011;9109;48.050;11.696;2022-11-20T11:38:28;3.83;;;1.10;;
17967;SDS011;9109;48.050;11.696;2022-11-20T11:41:39;1.00;;;0.80;;
17967;SDS011;9109;48.050;11.696;2022-11-20T11:44:44;1.90;;;1.07;;
17967;SDS011;9109;48.050;11.696;2022-11-20T11:48:05;2.23;;;1.33;;
17967;SDS011;9109;48.050;11.696;2022-11-20T11:51:10;1.90;;;1.10;;
17967;SDS011;9109;48.050;11.696;2022-11-20T11:54:15;1.80;;;1.10;;
17967;SDS011;9109;48.050;11.696;2022-11-20T11:57:22;4.30;;;1.60;;
17967;SDS011;9109;48.050;11.696;2022-11-20T12:00:29;1.80;;;1.27;;
17967;SDS011;9109;48.050;11.696;2022-11-20T12:03:34;4.27;;;1.17;;
17967;SDS011;9109;48.050;11.696;2022-11-20T12:06:38;2.30;;;1.10;;
17967;SDS011;9109;48.050;11.696;2022-11-20T12:09:46;3.67;;;1.10;;
17967;SDS011;9109;48.050;11.696;2022-11-20T12:12:54;3.17;;;1.37;;
17967;SDS011;9109;48.050;11.696;2022-11-20T12:16:10;2.17;;;1.23;;
17967;SDS011;9109;48.050;11.696;2022-11-20T12:19:14;1.70;;;1.13;;
17967;SDS011;9109;48.050;11.696;2022-11-20T12:22:18;1.00;;;0.87;;
17967;SDS011;9109;48.050;11.696;2022-11-20T12:25:28;2.20;;;1.47;;
17967;SDS011;9109;48.050;11.696;2022-11-20T12:28:36;1.57;;;1.03;;
17967;SDS011;9109;48.050;11.696;2022-11-20T12:31:57;1.30;;;1.10;;
17967;SDS011;9109;48.050;11.696;2022-11-20T12:35:11;2.07;;;1.20;;
17967;SDS011;9109;48.050;11.696;2022-11-20T12:38:40;1.47;;;1.23;;
17967;SDS011;9109;48.050;11.696;2022-11-20T12:42:05;1.50;;;1.20;;
17967;SDS011;9109;48.050;11.696;2022-11-20T12:45:51;1.70;;;1.07;;
17967;SDS011;9109;48.050;11.696;2022-11-20T12:49:08;3.50;;;1.13;;
17967;SDS011;9109;48.050;11.696;2022-11-20T12:52:29;1.60;;;1.10;;
17967;SDS011;9109;48.050;11.696;2022-11-20T12:55:46;1.50;;;1.20;;
17967;SDS011;9109;48.050;11.696;2022-11-20T12:58:54;3.70;;;1.20;;
17967;SDS011;9109;48.050;11.696;2022-11-20T13:02:23;4.27;;;1.10;;
17967;SDS011;9109;48.050;11.696;2022-11-20T13:05:31;1.20;;;1.00;;
17967;SDS011;9109;48.050;11.696;2022-11-20T13:08:39;3.30;;;1.40;;
17967;SDS011;9109;48.050;11.696;2022-11-20T13:11:44;2.90;;;1.30;;
17967;SDS011;9109;48.050;11.696;2022-11-20T13:14:52;1.53;;;1.27;;
17967;SDS011;9109;48.050;11.696;2022-11-20T13:18:00;2.37;;;1.63;;
17967;SDS011;9109;48.050;11.696;2022-11-20T13:21:12;2.70;;;1.77;;
17967;SDS011;9109;48.050;11.696;2022-11-20T13:24:23;1.37;;;1.20;;
17967;SDS011;9109;48.050;11.696;2022-11-20T13:27:27;6.37;;;1.20;;
17967;SDS011;9109;48.050;11.696;2022-11-20T13:30:32;2.33;;;1.17;;
17967;SDS011;9109;48.050;11.696;2022-11-20T13:33:38;1.70;;;1.20;;
17967;SDS011;9109;48.050;11.696;2022-11-20T13:36:50;2.23;;;1.20;;
17967;SDS011;9109;48.050;11.696;2022-11-20T13:40:34;3.37;;;1.90;;
17967;SDS011;9109;48.050;11.696;2022-11-20T13:44:04;3.00;;;1.33;;
17967;SDS011;9109;48.050;11.696;2022-11-20T13:48:53;2.53;;;1.40;;
17967;SDS011;9109;48.050;11.696;2022-11-20T13:52:18;5.77;;;1.80;;
17967;SDS011;9109;48.050;11.696;2022-11-20T13:55:35;5.67;;;1.70;;
17967;SDS011;9109;48.050;11.696;2022-11-20T13:58:44;4.83;;;1.60;;
17967;SDS011;9109;48.050;11.696;2022-11-20T14:01:57;2.33;;;1.40;;
17967;SDS011;9109;48.050;11.696;2022-11-20T14:05:00;2.57;;;1.30;;
17967;SDS011;9109;48.050;11.696;2022-11-20T14:08:05;4.00;;;1.57;;
17967;SDS011;9109;48.050;11.696;2022-11-20T14:11:14;2.23;;;1.33;;
17967;SDS011;9109;48.050;11.696;2022-11-20T14:14:21;3.70;;;1.37;;
17967;SDS011;9109;48.050;11.696;2022-11-20T14:17:29;2.20;;;1.13;;
17967;SDS011;9109;48.050;11.696;2022-11-20T14:20:33;1.63;;;1.30;;
17967;SDS011;9109;48.050;11.696;2022-11-20T14:23:35;2.30;;;1.30;;
17967;SDS011;9109;48.050;11.696;2022-11-20T14:26:41;3.37;;;1.37;;
17967;SDS011;9109;48.050;11.696;2022-11-20T14:29:45;5.20;;;1.53;;
17967;SDS011;9109;48.050;11.696;2022-11-20T14:32:50;5.47;;;1.40;;
17967;SDS011;9109;48.050;11.696;2022-11-20T14:35:55;1.10;;;1.00;;
17967;SDS011;9109;48.050;11.696;2022-11-20T14:38:59;1.80;;;1.33;;
17967;SDS011;9109;48.050;11.696;2022-11-20T14:42:01;2.50;;;1.20;;
17967;SDS011;9109;48.050;11.696;2022-11-20T14:45:04;2.90;;;1.30;;
17967;SDS011;9109;48.050;11.696;2022-11-20T14:48:09;2.57;;;1.20;;
17967;SDS011;9109;48.050;11.696;2022-11-20T14:51:15;1.20;;;1.10;;
17967;SDS011;9109;48.050;11.696;2022-11-20T14:54:27;4.37;;;1.77;;
17967;SDS011;9109;48.050;11.696;2022-11-20T14:57:34;2.33;;;1.50;;
17967;SDS011;9109;48.050;11.696;2022-11-20T15:00:37;2.20;;;1.17;;
17967;SDS011;9109;48.050;11.696;2022-11-20T15:03:39;2.60;;;1.37;;
17967;SDS011;9109;48.050;11.696;2022-11-20T15:06:50;1.63;;;1.10;;
17967;SDS011;9109;48.050;11.696;2022-11-20T15:10:02;5.37;;;1.47;;
17967;SDS011;9109;48.050;11.696;2022-11-20T15:13:10;4.93;;;1.30;;
17967;SDS011;9109;48.050;11.696;2022-11-20T15:16:15;4.03;;;1.27;;
17967;SDS011;9109;48.050;11.696;2022-11-20T15:19:20;1.33;;;0.90;;
17967;SDS011;9109;48.050;11.696;2022-11-20T15:22:24;1.00;;;0.90;;
17967;SDS011;9109;48.050;11.696;2022-11-20T15:25:26;1.70;;;1.10;;
17967;SDS011;9109;48.050;11.696;2022-11-20T15:28:29;1.00;;;0.80;;
17967;SDS011;9109;48.050;11.696;2022-11-20T15:31:32;1.10;;;0.73;;
17967;SDS011;9109;48.050;11.696;2022-11-20T15:34:34;2.03;;;0.93;;
17967;SDS011;9109;48.050;11.696;2022-11-20T15:37:38;1.47;;;0.80;;
17967;SDS011;9109;48.050;11.696;2022-11-20T15:40:40;1.30;;;0.80;;
17967;SDS011;9109;48.050;11.696;2022-11-20T15:43:42;0.90;;;0.80;;
17967;SDS011;9109;48.050;11.696;2022-11-20T15:46:45;0.80;;;0.70;;
17967;SDS011;9109;48.050;11.696;2022-11-20T15:49:47;2.83;;;0.77;;
17967;SDS011;9109;48.050;11.696;2022-11-20T15:52:50;1.27;;;0.90;;
17967;SDS011;9109;48.050;11.696;2022-11-20T15:55:52;1.90;;;0.80;;
17967;SDS011;9109;48.050;11.696;2022-11-20T15:58:54;2.20;;;0.97;;
17967;SDS011;9109;48.050;11.696;2022-11-20T16:01:56;1.27;;;0.90;;
17967;SDS011;9109;48.050;11.696;2022-11-20T16:04:58;1.17;;;1.03;;
17967;SDS011;9109;48.050;11.696;2022-11-20T16:08:01;2.27;;;0.90;;
17967;SDS011;9109;48.050;11.696;2022-11-20T16:11:03;1.70;;;0.80;;
17967;SDS011;9109;48.050;11.696;2022-11-20T16:14:05;1.17;;;1.00;;
17967;SDS011;9109;48.050;11.696;2022-11-20T16:17:24;3.33;;;1.00;;
17967;SDS011;9109;48.050;11.696;2022-11-20T16:20:42;1.07;;;0.87;;
17967;SDS011;9109;48.050;11.696;2022-11-20T16:23:46;1.43;;;1.00;;
17967;SDS011;9109;48.050;11.696;2022-11-20T16:26:48;1.83;;;1.23;;
17967;SDS011;9109;48.050;11.696;2022-11-20T16:29:50;3.50;;;1.20;;
17967;SDS011;9109;48.050;11.696;2022-11-20T16:32:52;3.40;;;1.27;;
17967;SDS011;9109;48.050;11.696;2022-11-20T16:35:54;3.97;;;1.13;;
17967;SDS011;9109;48.050;11.696;2022-11-20T16:38:59;2.53;;;1.20;;
17967;SDS011;9109;48.050;11.696;2022-11-20T16:42:05;2.10;;;1.00;;
17967;SDS011;9109;48.050;11.696;2022-11-20T16:45:07;6.47;;;2.73;;
17967;SDS011;9109;48.050;11.696;2022-11-20T16:48:13;5.60;;;2.60;;
17967;SDS011;9109;48.050;11.696;2022-11-20T16:51:16;7.37;;;2.70;;
17967;SDS011;9109;48.050;11.696;2022-11-20T16:54:19;8.23;;;2.40;;
17967;SDS011;9109;48.050;11.696;2022-11-20T16:57:21;6.97;;;2.80;;
17967;SDS011;9109;48.050;11.696;2022-11-20T17:00:23;5.80;;;2.73;;
17967;SDS011;9109;48.050;11.696;2022-11-20T17:03:25;6.63;;;2.70;;
17967;SDS011;9109;48.050;11.696;2022-11-20T17:06:27;3.03;;;1.63;;
17967;SDS011;9109;48.050;11.696;2022-11-20T17:09:32;2.47;;;1.50;;
17967;SDS011;9109;48.050;11.696;2022-11-20T17:12:34;2.53;;;1.50;;
17967;SDS011;9109;48.050;11.696;2022-11-20T17:15:36;2.33;;;1.50;;
17967;SDS011;9109;48.050;11.696;2022-11-20T17:18:38;3.03;;;1.80;;
17967;SDS011;9109;48.050;11.696;2022-11-20T17:21:41;1.93;;;1.20;;
17967;SDS011;9109;48.050;11.696;2022-11-20T17:24:44;2.37;;;1.40;;
17967;SDS011;9109;48.050;11.696;2022-11-20T17:27:46;5.03;;;1.30;;
17967;SDS011;9109;48.050;11.696;2022-11-20T17:30:48;3.40;;;1.43;;
17967;SDS011;9109;48.050;11.696;2022-11-20T17:33:50;3.77;;;1.50;;
17967;SDS011;9109;48.050;11.696;2022-11-20T17:36:52;3.27;;;1.70;;
17967;SDS011;9109;48.050;11.696;2022-11-20T17:39:56;4.03;;;1.90;;
17967;SDS011;9109;48.050;11.696;2022-11-20T17:42:57;4.63;;;1.77;;
17967;SDS011;9109;48.050;11.696;2022-11-20T17:45:59;4.40;;;2.00;;
17967;SDS011;9109;48.050;11.696;2022-11-20T17:49:01;7.30;;;2.10;;
17967;SDS011;9109;48.050;11.696;2022-11-20T17:52:04;2.53;;;1.83;;
17967;SDS011;9109;48.050;11.696;2022-11-20T17:55:07;3.00;;;1.87;;
17967;SDS011;9109;48.050;11.696;2022-11-20T17:58:10;2.87;;;1.87;;
17967;SDS011;9109;48.050;11.696;2022-11-20T18:01:11;2.57;;;1.60;;
17967;SDS011;9109;48.050;11.696;2022-11-20T18:04:13;2.73;;;1.70;;
17967;SDS011;9109;48.050;11.696;2022-11-20T18:07:15;3.33;;;1.70;;
17967;SDS011;9109;48.050;11.696;2022-11-20T18:10:19;2.63;;;1.53;;
17967;SDS011;9109;48.050;11.696;2022-11-20T18:13:21;3.10;;;1.87;;
17967;SDS011;9109;48.050;11.696;2022-11-20T18:16:43;3.40;;;1.80;;
17967;SDS011;9109;48.050;11.696;2022-11-20T18:19:50;5.20;;;1.60;;
17967;SDS011;9109;48.050;11.696;2022-11-20T18:22:52;5.20;;;1.83;;
17967;SDS011;9109;48.050;11.696;2022-11-20T18:25:59;3.63;;;1.80;;
17967;SDS011;9109;48.050;11.696;2022-11-20T18:29:01;2.77;;;1.83;;
17967;SDS011;9109;48.050;11.696;2022-11-20T18:32:04;5.97;;;2.30;;
17967;SDS011;9109;48.050;11.696;2022-11-20T18:35:06;3.03;;;2.20;;
17967;SDS011;9109;48.050;11.696;2022-11-20T18:38:09;3.53;;;2.20;;
17967;SDS011;9109;48.050;11.696;2022-11-20T18:41:12;2.57;;;1.50;;
17967;SDS011;9109;48.050;11.696;2022-11-20T18:44:29;2.80;;;1.30;;
17967;SDS011;9109;48.050;11.696;2022-11-20T18:47:51;1.63;;;1.20;;
17967;SDS011;9109;48.050;11.696;2022-11-20T18:50:53;3.30;;;1.30;;
17967;SDS011;9109;48.050;11.696;2022-11-20T18:53:55;3.90;;;1.93;;
17967;SDS011;9109;48.050;11.696;2022-11-20T18:56:58;7.47;;;2.20;;
17967;SDS011;9109;48.050;11.696;2022-11-20T19:00:00;3.63;;;2.00;;
17967;SDS011;9109;48.050;11.696;2022-11-20T19:03:04;4.57;;;2.20;;
17967;SDS011;9109;48.050;11.696;2022-11-20T19:06:11;7.93;;;1.93;;
17967;SDS011;9109;48.050;11.696;2022-11-20T19:09:13;3.10;;;2.10;;
17967;SDS011;9109;48.050;11.696;2022-11-20T19:12:16;6.13;;;2.43;;
17967;SDS011;9109;48.050;11.696;2022-11-20T19:15:18;4.10;;;2.20;;
17967;SDS011;9109;48.050;11.696;2022-11-20T19:18:20;3.07;;;1.90;;
17967;SDS011;9109;48.050;11.696;2022-11-20T19:21:23;2.87;;;1.90;;
17967;SDS011;9109;48.050;11.696;2022-11-20T19:24:25;6.80;;;1.83;;
17967;SDS011;9109;48.050;11.696;2022-11-20T19:27:29;1.93;;;1.57;;
17967;SDS011;9109;48.050;11.696;2022-11-20T19:30:31;7.33;;;1.70;;
17967;SDS011;9109;48.050;11.696;2022-11-20T19:33:33;2.03;;;1.40;;
17967;SDS011;9109;48.050;11.696;2022-11-20T19:36:36;3.53;;;1.70;;
17967;SDS011;9109;48.050;11.696;2022-11-20T19:39:39;3.60;;;1.73;;
17967;SDS011;9109;48.050;11.696;2022-11-20T19:42:43;4.97;;;1.87;;
17967;SDS011;9109;48.050;11.696;2022-11-20T19:45:45;5.10;;;1.83;;
17967;SDS011;9109;48.050;11.696;2022-11-20T19:48:46;4.73;;;2.67;;
17967;SDS011;9109;48.050;11.696;2022-11-20T19:51:48;3.93;;;2.50;;
17967;SDS011;9109;48.050;11.696;2022-11-20T19:54:51;4.20;;;2.10;;
17967;SDS011;9109;48.050;11.696;2022-11-20T19:57:54;3.67;;;2.20;;
17967;SDS011;9109;48.050;11.696;2022-11-20T20:00:56;3.37;;;1.83;;
17967;SDS011;9109;48.050;11.696;2022-11-20T20:04:05;3.50;;;2.50;;
17967;SDS011;9109;48.050;11.696;2022-11-20T20:07:07;4.07;;;2.30;;
17967;SDS011;9109;48.050;11.696;2022-11-20T20:10:09;5.13;;;2.23;;
17967;SDS011;9109;48.050;11.696;2022-11-20T20:13:12;3.30;;;1.90;;
17967;SDS011;9109;48.050;11.696;2022-11-20T20:16:15;2.90;;;1.87;;
17967;SDS011;9109;48.050;11.696;2022-11-20T20:19:18;3.07;;;2.07;;
17967;SDS011;9109;48.050;11.696;2022-11-20T20:22:20;3.27;;;1.90;;
17967;SDS011;9109;48.050;11.696;2022-11-20T20:25:22;3.47;;;1.80;;
17967;SDS011;9109;48.050;11.696;2022-11-20T20:28:28;7.63;;;2.10;;
17967;SDS011;9109;48.050;11.696;2022-11-20T20:31:35;2.93;;;1.57;;
17967;SDS011;9109;48.050;11.696;2022-11-20T20:35:19;4.83;;;1.80;;
17967;SDS011;9109;48.050;11.696;2022-11-20T20:38:43;4.40;;;1.93;;
17967;SDS011;9109;48.050;11.696;2022-11-20T20:41:45;3.27;;;1.80;;
17967;SDS011;9109;48.050;11.696;2022-11-20T20:44:49;3.43;;;2.40;;
17967;SDS011;9109;48.050;11.696;2022-11-20T20:48:06;3.43;;;1.90;;
17967;SDS011;9109;48.050;11.696;2022-11-20T20:51:15;4.73;;;1.73;;
17967;SDS011;9109;48.050;11.696;2022-11-20T20:54:31;3.83;;;1.83;;
17967;SDS011;9109;48.050;11.696;2022-11-20T20:57:36;2.57;;;1.80;;
17967;SDS011;9109;48.050;11.696;2022-11-20T21:00:40;3.33;;;1.90;;
17967;SDS011;9109;48.050;11.696;2022-11-20T21:03:42;2.93;;;1.90;;
17967;SDS011;9109;48.050;11.696;2022-11-20T21:06:45;2.73;;;1.90;;
17967;SDS011;9109;48.050;11.696;2022-11-20T21:10:00;2.97;;;1.80;;
17967;SDS011;9109;48.050;11.696;2022-11-20T21:13:02;4.20;;;2.00;;
17967;SDS011;9109;48.050;11.696;2022-11-20T21:16:13;2.20;;;1.73;;
17967;SDS011;9109;48.050;11.696;2022-11-20T21:19:24;3.70;;;2.00;;
17967;SDS011;9109;48.050;11.696;2022-11-20T21:22:27;3.63;;;1.70;;
17967;SDS011;9109;48.050;11.696;2022-11-20T21:25:28;6.73;;;1.90;;
17967;SDS011;9109;48.050;11.696;2022-11-20T21:28:31;5.90;;;2.50;;
17967;SDS011;9109;48.050;11.696;2022-11-20T21:35:24;3.53;;;1.87;;
17967;SDS011;9109;48.050;11.696;2022-11-20T21:39:06;5.70;;;2.57;;
17967;SDS011;9109;48.050;11.696;2022-11-20T21:42:28;5.87;;;2.20;;
17967;SDS011;9109;48.050;11.696;2022-11-20T21:45:46;4.07;;;1.50;;
17967;SDS011;9109;48.050;11.696;2022-11-20T21:49:22;2.80;;;1.60;;
17967;SDS011;9109;48.050;11.696;2022-11-20T21:52:58;2.33;;;1.30;;
17967;SDS011;9109;48.050;11.696;2022-11-20T21:56:14;2.50;;;1.50;;
17967;SDS011;9109;48.050;11.696;2022-11-20T21:59:44;2.47;;;1.43;;
17967;SDS011;9109;48.050;11.696;2022-11-20T22:02:53;2.73;;;1.50;;
17967;SDS011;9109;48.050;11.696;2022-11-20T22:05:55;3.53;;;1.67;;
17967;SDS011;9109;48.050;11.696;2022-11-20T22:09:11;2.07;;;1.37;;
17967;SDS011;9109;48.050;11.696;2022-11-20T22:12:17;1.77;;;1.40;;
17967;SDS011;9109;48.050;11.696;2022-11-20T22:15:19;2.27;;;1.47;;
17967;SDS011;9109;48.050;11.696;2022-11-20T22:18:29;3.53;;;1.50;;
17967;SDS011;9109;48.050;11.696;2022-11-20T22:21:42;2.17;;;1.40;;
17967;SDS011;9109;48.050;11.696;2022-11-20T22:25:00;1.33;;;1.13;;
17967;SDS011;9109;48.050;11.696;2022-11-20T22:28:13;3.47;;;1.27;;
17967;SDS011;9109;48.050;11.696;2022-11-20T22:31:38;1.67;;;1.10;;
17967;SDS011;9109;48.050;11.696;2022-11-20T22:34:39;2.23;;;1.13;;
17967;SDS011;9109;48.050;11.696;2022-11-20T22:37:44;2.53;;;1.17;;
17967;SDS011;9109;48.050;11.696;2022-11-20T22:41:03;2.37;;;1.40;;
17967;SDS011;9109;48.050;11.696;2022-11-20T22:44:11;4.20;;;1.40;;
17967;SDS011;9109;48.050;11.696;2022-11-20T22:47:40;1.83;;;1.30;;
17967;SDS011;9109;48.050;11.696;2022-11-20T22:50:50;4.00;;;1.70;;
17967;SDS011;9109;48.050;11.696;2022-11-20T22:54:24;2.23;;;1.43;;
17967;SDS011;9109;48.050;11.696;2022-11-20T22:57:27;2.97;;;1.67;;
17967;SDS011;9109;48.050;11.696;2022-11-20T23:00:34;2.77;;;1.60;;
17967;SDS011;9109;48.050;11.696;2022-11-20T23:03:55;2.53;;;1.30;;
17967;SDS011;9109;48.050;11.696;2022-11-20T23:06:58;1.70;;;1.33;;
17967;SDS011;9109;48.050;11.696;2022-11-20T23:10:00;1.07;;;0.97;;
17967;SDS011;9109;48.050;11.696;2022-11-20T23:13:04;4.37;;;1.37;;
17967;SDS011;9109;48.050;11.696;2022-11-20T23:16:06;1.40;;;1.10;;
17967;SDS011;9109;48.050;11.696;2022-11-20T23:19:10;2.27;;;1.17;;
17967;SDS011;9109;48.050;11.696;2022-11-20T23:22:17;2.53;;;1.00;;
17967;SDS011;9109;48.050;11.696;2022-11-20T23:25:31;4.30;;;1.00;;
17967;SDS011;9109;48.050;11.696;2022-11-20T23:28:42;2.07;;;1.17;;
17967;SDS011;9109;48.050;11.696;2022-11-20T23:31:45;1.10;;;0.83;;
17967;SDS011;9109;48.050;11.696;2022-11-20T23:34:49;1.77;;;0.80;;
17967;SDS011;9109;48.050;11.696;2022-11-20T23:37:51;1.20;;;0.80;;
17967;SDS011;9109;48.050;11.696;2022-11-20T23:40:56;7.53;;;0.70;;
17967;SDS011;9109;48.050;11.696;2022-11-20T23:44:03;1.00;;;0.90;;
17967;SDS011;9109;48.050;11.696;2022-11-20T23:47:22;1.17;;;0.60;;
17967;SDS011;9109;48.050;11.696;2022-11-20T23:50:36;0.80;;;0.70;;